Flight Track Log - Related Links

Times and Time Zones

All times are in EDT time to prevent confusion due to time zone crossing. See the THY2453 flight status page for this flight to view local times or setup timezone preferences in your user account.

Time Position Orientation Groundspeed Altitude Reporting Facility
EDT Latitude Longitude Course Direction KTS MPH feet Rate Location/Type
11:50PM 37.3384 34.7542 311° West  Level Estimated
11:51PM 37.3975 34.6660 310° West  Level Estimated
11:52PM 37.4566 34.5777 310° West  Level Estimated
11:53PM 37.5156 34.4892 310° West  Level Estimated
11:54PM 37.5745 34.4006 310° West  Level Estimated
11:55PM 37.6334 34.3119 310° West  Level Estimated
11:56PM 37.6922 34.2230 310° West  Level Estimated
11:57PM 37.7510 34.1340 310° West  Level Estimated
11:58PM 37.8096 34.0448 310° West  Level Estimated
11:59PM 37.8683 33.9555 310° West  Level Estimated
12:00AM 37.9268 33.8660 310° West  Level Estimated
12:01AM 37.9853 33.7765 310° West  Level Estimated
12:02AM 38.0437 33.6867 310° West  Level Estimated
12:03AM 38.1020 33.5968 310° West  Level Estimated
12:04AM 38.1603 33.5068 309° West  Level Estimated
12:05AM 38.2185 33.4166 309° West  Level Estimated
12:06AM 38.2766 33.3263 309° West  Level Estimated
12:07AM 38.3347 33.2359 309° West  Level Estimated
12:08AM 38.3927 33.1453 309° West  Level Estimated
12:09AM 38.4506 33.0545 309° West  Level Estimated
12:10AM 38.5084 32.9636 309° West  Level Estimated
12:11AM 38.5662 32.8726 309° West  Level Estimated
12:12AM 38.6239 32.7814 309° West  Level Estimated
12:13AM 38.6815 32.6901 309° West  Level Estimated
12:14AM 38.7391 32.5986 309° West  Level Estimated
12:15AM 38.7966 32.5070 309° West  Level Estimated
12:16AM 38.8540 32.4152 309° West  Level Estimated
12:17AM 38.9114 32.3233 309° West  Level Estimated
12:18AM 38.9687 32.2312 309° West  Level Estimated
12:19AM 39.0259 32.1390 309° West  Level Estimated
12:20AM 39.0830 32.0466 309° West  Level Estimated
12:21AM 39.1401 31.9541 309° West  Level Estimated
12:22AM 39.1971 31.8614 308° West  Level Estimated
12:23AM 39.2540 31.7686 308° West  Level Estimated
12:24AM 39.3108 31.6756 308° West  Level Estimated
12:25AM 39.3676 31.5825 308° West  Level Estimated
12:26AM 39.4243 31.4893 308° West  Level Estimated
12:27AM 39.4809 31.3958 308° West  Level Estimated
12:28AM 39.5375 31.3022 308° West  Level Estimated
12:29AM 39.5939 31.2085 308° West  Level Estimated
12:30AM 39.6503 31.1146 308° West  Level Estimated
12:31AM 39.7066 31.0206 308° West  Level Estimated
12:32AM 39.7629 30.9264 308° West  Level Estimated
12:33AM 39.8190 30.8321 308° West  Level Estimated
12:34AM 39.8751 30.7376 308° West  Level Estimated
12:35AM 39.9311 30.6429 308° West  Level Estimated
12:36AM 39.9871 30.5481 308° West  Level Estimated
12:37AM 40.0429 30.4532 308° West  Level Estimated
12:38AM 40.0987 30.3580 307° West  Level Estimated
12:39AM 40.1544 30.2628 307° West  Level Estimated
12:40AM 40.2100 30.1674 307° West  Level Estimated
12:41AM 40.2656 30.0718 307° West  Level Estimated
12:42AM 40.3211 29.9760 307° West  Level Estimated
12:43AM 40.3765 29.8801 307° West  Level Estimated
12:44AM 40.4318 29.7841 307° West  Level Estimated
12:45AM 40.4870 29.6879 307° West  Level Estimated
12:46AM 40.5421 29.5915 307° West  Level Estimated
12:47AM 40.5972 29.4950 307° West  Level Estimated
12:48AM 40.6522 29.3983 307° West  Level Estimated
12:49AM 40.7071 29.3014 307° West  Level Estimated
12:50AM 40.7620 29.2044 307° West  Level Estimated
12:51AM 40.8167 29.1072 307° West  Level Estimated
12:52AM 40.8713 29.0099 307° West  Level Estimated
12:53AM 40.9259 28.9124 307° West  Level Estimated
12:54AM 40.9769 28.8211 306° West  Level Estimated
12:55AM 40.9769 28.8211 21° North  Level Estimated
12:56AM 40.9769 28.8211 21° North  Level Estimated
12:57AM 40.9769 28.8211 21° North  Level Estimated
12:58AM 40.9769 28.8211 21° North  Level Estimated
12:59AM 40.9769 28.8211 21° North  Level Estimated
01:00AM 40.9769 28.8211 21° North  Level Estimated
01:01AM 40.9769 28.8211 21° North  Level Estimated
01:02AM 40.9769 28.8211 21° North  Level Estimated
01:03AM 40.9769 28.8211 21° North  Level Estimated
01:04AM 40.9769 28.8211 21° North  Level Estimated
01:05AM 40.9769 28.8211 21° North  Level Estimated
01:06AM 40.9769 28.8211 21° North  Level Estimated
01:07AM 40.9769 28.8211 21° North  Level Estimated
01:08AM 40.9769 28.8211 21° North  Level Estimated
01:09AM 40.9769 28.8211 21° North  Level Estimated
01:10AM 40.9769 28.8211 21° North  Level Estimated

Login

Don't have an account? Register now (free) for customized features, flight alerts, and more!